METAR Analyzer

一覧表示

Hello, Guest. (Login)

YSSY/SYD  -  シドニー・キングスフォード・スミス

観測日時
2021-11-28 20:30 (UTC) (25分前)
気温
17
露点
11
湿数
6
相対湿度
67.7%
QNH
1021hPa
推定現地気圧
1020.3hPa
推定海面気圧
1021.0hPa
体感温度
9.9
(無風時)
18.1
HI
16.5
気温前日比
±0
体感温度前日比
+3.6
HI前日比
-0.3
水平視程
>10000m
鉛直視程
データなし
雲底高度
12000ft AGL
V/I
VMC (VFR)
RVR
No RVR data
卓越風
6kt from 230°
ガスト
No gust
降水
報告なし
その他の天気
報告なし
少しの雲 @ 1800ft AGL / 隙間のある雲 @ 12000ft AGL

YSSY 282030Z 23006KT 9999 FEW018 BKN120 17/11 Q1021

NZAA/AKL  -  Auckland

観測日時
2021-11-28 20:30 (UTC) (25分前)
気温
20
露点
15
湿数
5
相対湿度
72.9%
QNH
1022hPa
推定現地気圧
1021.2hPa
推定海面気圧
1022.0hPa
体感温度
14.6
(無風時)
20.6
HI
20
気温前日比
±0
体感温度前日比
-0.9
HI前日比
-0.1
水平視程
>10000m
鉛直視程
データなし
雲底高度
No dense clouds
V/I
VMC (VFR)
RVR
No RVR data
卓越風
4kt from 210° (150° ~ 250°)
ガスト
No gust
降水
報告なし
その他の天気
報告なし
少しの雲 @ 2200ft AGL

NZAA 282030Z AUTO 21004KT 150V250 9999 FEW022/// 20/15 Q1022 NOSIG

NZWN/WLG  -  Wellington

観測日時
2021-11-28 20:30 (UTC) (25分前)
気温
19
露点
16
湿数
3
相対湿度
82.7%
QNH
1020hPa
推定現地気圧
1018.4hPa
推定海面気圧
1019.9hPa
体感温度
10
(無風時)
20.2
HI
19.1
気温前日比
+3
体感温度前日比
-0.1
HI前日比
+3.1
水平視程
>10000m
鉛直視程
データなし
雲底高度
1500ft AGL
V/I
VMC (VFR)
RVR
No RVR data
卓越風
14kt from 340°
ガスト
No gust
降水
報告なし
その他の天気
報告なし
隙間のある雲 @ 1500ft AGL / 隙間のある雲 @ 7000ft AGL

NZWN 282030Z AUTO 34014KT 9999 BKN015/// BKN070/// 19/16 Q1020 BECMG BKN018

NZCH/CHC  -  Christchurch

観測日時
2021-11-28 20:30 (UTC) (25分前)
気温
14
露点
13
湿数
1
相対湿度
93.7%
QNH
1019hPa
推定現地気圧
1014.5hPa
推定海面気圧
1019.0hPa
体感温度
5.4
(無風時)
16.2
HI
13.9
気温前日比
+2
体感温度前日比
+4.9
HI前日比
+2
水平視程
>10000m
鉛直視程
データなし
雲底高度
700ft AGL
V/I
SVMC (SVFR)
RVR
No RVR data
卓越風
7kt from 50° (20° ~ 80°)
ガスト
No gust
降水
報告なし
その他の天気
報告なし
全天を覆う雲 @ 700ft AGL

NZCH 282030Z AUTO 05007KT 020V080 9999 OVC007/// 14/13 Q1019 BECMG FEW050

NZQN/ZQN  -  Queenstown